HK36E TFFF-TTPP
Flight info
| Callsign | HK36E |
|---|---|
| Flight time | 1h 11m |
| Altitude | 26000 |
| Route | KISES2R KISES RIBOR LEXAS |
| Aircraft | BE20/M-SDFGRWY/LB1 |
Departure
| Time | 2026-04-27 13:31 |
|---|---|
| Airport | Martinique Aimé Césaire International Airport (TFFF) |
Arrival
| Time | 2026-04-27 14:42 |
|---|---|
| Airport | Piarco International Airport (TTPP) |
| Time | Latitude | Longitude | Altitude | Speed | Heading |
|---|---|---|---|---|---|
| 2026-04-27 13:22 | 14.59348 | -61.00547 | 3 ft | 0 kts | 349° |
| 2026-04-27 13:24 | 14.59351 | -61.00548 | 5 ft | 3 kts | 349° |
| 2026-04-27 13:25 | 14.59363 | -61.00591 | 5 ft | 4 kts | 262° |
| 2026-04-27 13:25 | 14.59356 | -61.00633 | 5 ft | 2 kts | 260° |
| 2026-04-27 13:25 | 14.59349 | -61.00677 | 5 ft | 4 kts | 260° |
| 2026-04-27 13:25 | 14.59343 | -61.00710 | 5 ft | 5 kts | 257° |
| 2026-04-27 13:26 | 14.59301 | -61.00715 | 5 ft | 7 kts | 170° |
| 2026-04-27 13:26 | 14.59267 | -61.00709 | 5 ft | 9 kts | 171° |
| 2026-04-27 13:26 | 14.59219 | -61.00701 | 5 ft | 7 kts | 184° |
| 2026-04-27 13:26 | 14.59200 | -61.00747 | 4 ft | 10 kts | 262° |
| 2026-04-27 13:27 | 14.59184 | -61.00841 | 5 ft | 13 kts | 260° |
| 2026-04-27 13:27 | 14.59173 | -61.00909 | 5 ft | 14 kts | 261° |
| 2026-04-27 13:27 | 14.59160 | -61.00982 | 5 ft | 7 kts | 259° |
| 2026-04-27 13:27 | 14.59151 | -61.01029 | 6 ft | 10 kts | 259° |
| 2026-04-27 13:28 | 14.59138 | -61.01105 | 5 ft | 7 kts | 261° |
| 2026-04-27 13:28 | 14.59128 | -61.01169 | 5 ft | 11 kts | 261° |
| 2026-04-27 13:28 | 14.59116 | -61.01247 | 5 ft | 8 kts | 261° |
| 2026-04-27 13:28 | 14.59107 | -61.01299 | 5 ft | 1 kts | 260° |
| 2026-04-27 13:29 | 14.59100 | -61.01338 | 5 ft | 10 kts | 260° |
| 2026-04-27 13:29 | 14.59097 | -61.01358 | 5 ft | 7 kts | 261° |
| 2026-04-27 13:29 | 14.59074 | -61.01363 | 5 ft | 0 kts | 173° |
| 2026-04-27 13:29 | 14.59067 | -61.01362 | 5 ft | 4 kts | 173° |
| 2026-04-27 13:30 | 14.59007 | -61.01355 | 6 ft | 13 kts | 172° |
| 2026-04-27 13:30 | 14.58949 | -61.01338 | 7 ft | 11 kts | 134° |
| 2026-04-27 13:30 | 14.58949 | -61.01232 | 7 ft | 21 kts | 81° |
| 2026-04-27 13:30 | 14.59010 | -61.00879 | 6 ft | 81 kts | 78° |
| 2026-04-27 13:31 | 14.59118 | -61.00187 | 212 ft | 112 kts | 82° |
| 2026-04-27 13:31 | 14.59295 | -60.99388 | 713 ft | 123 kts | 79° |
| 2026-04-27 13:31 | 14.59484 | -60.98368 | 856 ft | 153 kts | 84° |
| 2026-04-27 13:31 | 14.59651 | -60.97327 | 1540 ft | 142 kts | 82° |
| 2026-04-27 13:32 | 14.59784 | -60.96325 | 2155 ft | 140 kts | 81° |
| 2026-04-27 13:32 | 14.59969 | -60.95316 | 2663 ft | 146 kts | 81° |
| 2026-04-27 13:32 | 14.60152 | -60.94285 | 3329 ft | 145 kts | 83° |
| 2026-04-27 13:32 | 14.60327 | -60.93259 | 3944 ft | 146 kts | 83° |
| 2026-04-27 13:33 | 14.60499 | -60.92236 | 4522 ft | 146 kts | 82° |
| 2026-04-27 13:33 | 14.60675 | -60.91182 | 5020 ft | 149 kts | 82° |
| 2026-04-27 13:33 | 14.60787 | -60.90116 | 5494 ft | 153 kts | 102° |
| 2026-04-27 13:33 | 14.60259 | -60.89195 | 6057 ft | 150 kts | 139° |
| 2026-04-27 13:34 | 14.59293 | -60.88827 | 6592 ft | 155 kts | 176° |
| 2026-04-27 13:34 | 14.58192 | -60.88875 | 7092 ft | 160 kts | 179° |
| 2026-04-27 13:34 | 14.57063 | -60.88902 | 7569 ft | 163 kts | 171° |
| 2026-04-27 13:34 | 14.55970 | -60.88614 | 8062 ft | 163 kts | 154° |
| 2026-04-27 13:35 | 14.55001 | -60.87993 | 8562 ft | 165 kts | 138° |
| 2026-04-27 13:35 | 14.54019 | -60.87444 | 9132 ft | 165 kts | 176° |
| 2026-04-27 13:35 | 14.52939 | -60.87871 | 9633 ft | 175 kts | 214° |
| 2026-04-27 13:35 | 14.51932 | -60.88606 | 10131 ft | 178 kts | 206° |
| 2026-04-27 13:36 | 14.50800 | -60.89088 | 10598 ft | 176 kts | 190° |
| 2026-04-27 13:36 | 14.49582 | -60.89247 | 11070 ft | 177 kts | 182° |
| 2026-04-27 13:36 | 14.48364 | -60.89332 | 11558 ft | 175 kts | 182° |
| 2026-04-27 13:36 | 14.47144 | -60.89423 | 12045 ft | 176 kts | 183° |
| 2026-04-27 13:37 | 14.45936 | -60.89603 | 12516 ft | 176 kts | 199° |
| 2026-04-27 13:37 | 14.44787 | -60.90058 | 12972 ft | 177 kts | 200° |
| 2026-04-27 13:37 | 14.43637 | -60.90505 | 13417 ft | 177 kts | 200° |
| 2026-04-27 13:37 | 14.42488 | -60.90947 | 13859 ft | 176 kts | 201° |
| 2026-04-27 13:38 | 14.41346 | -60.91386 | 14216 ft | 176 kts | 201° |
| 2026-04-27 13:38 | 14.40209 | -60.91823 | 14632 ft | 175 kts | 200° |
| 2026-04-27 13:38 | 14.39048 | -60.92269 | 14988 ft | 176 kts | 200° |
| 2026-04-27 13:38 | 14.37897 | -60.92712 | 15425 ft | 175 kts | 200° |
| 2026-04-27 13:39 | 14.36765 | -60.93147 | 15901 ft | 173 kts | 199° |
| 2026-04-27 13:39 | 14.35655 | -60.93574 | 16344 ft | 173 kts | 200° |
| 2026-04-27 13:39 | 14.34526 | -60.94008 | 16772 ft | 173 kts | 199° |
| 2026-04-27 13:39 | 14.33419 | -60.94434 | 17301 ft | 167 kts | 199° |
| 2026-04-27 13:40 | 14.32330 | -60.94852 | 17737 ft | 168 kts | 200° |
| 2026-04-27 13:40 | 14.31221 | -60.95278 | 18116 ft | 171 kts | 200° |
| 2026-04-27 13:40 | 14.30105 | -60.95707 | 18552 ft | 169 kts | 199° |
| 2026-04-27 13:40 | 14.29007 | -60.96129 | 18963 ft | 170 kts | 200° |
| 2026-04-27 13:41 | 14.27888 | -60.96559 | 19371 ft | 169 kts | 200° |
| 2026-04-27 13:41 | 14.26782 | -60.96983 | 19797 ft | 170 kts | 200° |
| 2026-04-27 13:41 | 14.25670 | -60.97410 | 20213 ft | 169 kts | 200° |
| 2026-04-27 13:41 | 14.24576 | -60.97831 | 20646 ft | 169 kts | 200° |
| 2026-04-27 13:42 | 14.23471 | -60.98255 | 21058 ft | 169 kts | 200° |
| 2026-04-27 13:42 | 14.22374 | -60.98676 | 21509 ft | 167 kts | 200° |
| 2026-04-27 13:42 | 14.21281 | -60.99096 | 21906 ft | 168 kts | 200° |
| 2026-04-27 13:42 | 14.20189 | -60.99515 | 22318 ft | 168 kts | 200° |
| 2026-04-27 13:43 | 14.19093 | -60.99936 | 22748 ft | 167 kts | 200° |
| 2026-04-27 13:43 | 14.17967 | -61.00219 | 23096 ft | 168 kts | 188° |
| 2026-04-27 13:43 | 14.16821 | -61.00389 | 23521 ft | 165 kts | 189° |
| 2026-04-27 13:43 | 14.15680 | -61.00569 | 23858 ft | 167 kts | 189° |
| 2026-04-27 13:44 | 14.14530 | -61.00747 | 24148 ft | 168 kts | 189° |
| 2026-04-27 13:44 | 14.13383 | -61.00925 | 24500 ft | 166 kts | 190° |
| 2026-04-27 13:44 | 14.12234 | -61.01103 | 24827 ft | 168 kts | 190° |
| 2026-04-27 13:44 | 14.11076 | -61.01282 | 25153 ft | 169 kts | 190° |
| 2026-04-27 13:45 | 14.09924 | -61.01460 | 25513 ft | 167 kts | 190° |
| 2026-04-27 13:45 | 14.08767 | -61.01640 | 25829 ft | 169 kts | 191° |
| 2026-04-27 13:45 | 14.07590 | -61.01823 | 26048 ft | 178 kts | 191° |
| 2026-04-27 13:45 | 14.06302 | -61.02024 | 26067 ft | 196 kts | 190° |
| 2026-04-27 13:46 | 14.04892 | -61.02242 | 26072 ft | 213 kts | 190° |
| 2026-04-27 13:46 | 14.03400 | -61.02472 | 26074 ft | 227 kts | 190° |
| 2026-04-27 13:46 | 14.01783 | -61.02722 | 26069 ft | 238 kts | 190° |
| 2026-04-27 13:46 | 14.00114 | -61.02980 | 26068 ft | 246 kts | 190° |
| 2026-04-27 13:47 | 13.98395 | -61.03246 | 26064 ft | 252 kts | 190° |
| 2026-04-27 13:47 | 13.96641 | -61.03517 | 26057 ft | 257 kts | 190° |
| 2026-04-27 13:47 | 13.94859 | -61.03792 | 26066 ft | 261 kts | 190° |
| 2026-04-27 13:47 | 13.93078 | -61.04068 | 26057 ft | 263 kts | 190° |
| 2026-04-27 13:48 | 13.91262 | -61.04349 | 26055 ft | 265 kts | 189° |
| 2026-04-27 13:48 | 13.89427 | -61.04632 | 26056 ft | 267 kts | 189° |
| 2026-04-27 13:48 | 13.87584 | -61.04917 | 26057 ft | 268 kts | 189° |
| 2026-04-27 13:48 | 13.85735 | -61.05203 | 26053 ft | 269 kts | 189° |
| 2026-04-27 13:49 | 13.83882 | -61.05489 | 26059 ft | 269 kts | 189° |
| 2026-04-27 13:49 | 13.82028 | -61.05776 | 26049 ft | 270 kts | 189° |
| 2026-04-27 13:49 | 13.80172 | -61.06063 | 26054 ft | 270 kts | 189° |
| 2026-04-27 13:49 | 13.78308 | -61.06350 | 26053 ft | 271 kts | 189° |
| 2026-04-27 13:50 | 13.76442 | -61.06638 | 26052 ft | 271 kts | 189° |
| 2026-04-27 13:50 | 13.74576 | -61.06926 | 26054 ft | 271 kts | 189° |
| 2026-04-27 13:50 | 13.72714 | -61.07214 | 26054 ft | 271 kts | 189° |
| 2026-04-27 13:50 | 13.70852 | -61.07501 | 26052 ft | 271 kts | 189° |
| 2026-04-27 13:51 | 13.68992 | -61.07788 | 26052 ft | 270 kts | 189° |
| 2026-04-27 13:51 | 13.67132 | -61.08075 | 26052 ft | 270 kts | 189° |
| 2026-04-27 13:51 | 13.65275 | -61.08361 | 26051 ft | 270 kts | 189° |
| 2026-04-27 13:51 | 13.63419 | -61.08648 | 26052 ft | 270 kts | 189° |
| 2026-04-27 13:52 | 13.61562 | -61.08934 | 26052 ft | 270 kts | 189° |
| 2026-04-27 13:52 | 13.60332 | -61.09124 | 26051 ft | 270 kts | 189° |
| 2026-04-27 13:52 | 13.58474 | -61.09410 | 26052 ft | 270 kts | 189° |
| 2026-04-27 13:52 | 13.56618 | -61.09696 | 26050 ft | 270 kts | 189° |
| 2026-04-27 13:53 | 13.52908 | -61.10268 | 26048 ft | 269 kts | 189° |
| 2026-04-27 13:53 | 13.51055 | -61.10554 | 26046 ft | 270 kts | 189° |
| 2026-04-27 13:53 | 13.49198 | -61.10840 | 26048 ft | 270 kts | 189° |
| 2026-04-27 13:54 | 13.47341 | -61.11126 | 26047 ft | 270 kts | 189° |
| 2026-04-27 13:54 | 13.45486 | -61.11412 | 26045 ft | 270 kts | 189° |
| 2026-04-27 13:54 | 13.43630 | -61.11697 | 26045 ft | 270 kts | 189° |
| 2026-04-27 13:54 | 13.41773 | -61.11983 | 26046 ft | 270 kts | 189° |
| 2026-04-27 13:55 | 13.39918 | -61.12269 | 26047 ft | 270 kts | 189° |
| 2026-04-27 13:55 | 13.38062 | -61.12557 | 26044 ft | 269 kts | 190° |
| 2026-04-27 13:55 | 13.36228 | -61.12914 | 26043 ft | 268 kts | 189° |
| 2026-04-27 13:55 | 13.34380 | -61.13202 | 26030 ft | 269 kts | 188° |
| 2026-04-27 13:56 | 13.32533 | -61.13498 | 26028 ft | 269 kts | 189° |
| 2026-04-27 13:56 | 13.30712 | -61.13816 | 26028 ft | 269 kts | 190° |
| 2026-04-27 13:56 | 13.28864 | -61.14142 | 26029 ft | 270 kts | 189° |
| 2026-04-27 13:56 | 13.27014 | -61.14461 | 26028 ft | 270 kts | 189° |
| 2026-04-27 13:57 | 13.25161 | -61.14778 | 26027 ft | 270 kts | 189° |
| 2026-04-27 13:57 | 13.23308 | -61.15097 | 26027 ft | 270 kts | 189° |
| 2026-04-27 13:57 | 13.21453 | -61.15417 | 26025 ft | 270 kts | 189° |
| 2026-04-27 13:57 | 13.19598 | -61.15737 | 26025 ft | 271 kts | 189° |
| 2026-04-27 13:58 | 13.17740 | -61.16057 | 26025 ft | 271 kts | 189° |
| 2026-04-27 13:58 | 13.15884 | -61.16377 | 26026 ft | 271 kts | 189° |
| 2026-04-27 13:58 | 13.14026 | -61.16696 | 26030 ft | 271 kts | 189° |
| 2026-04-27 13:58 | 13.12168 | -61.17016 | 26028 ft | 271 kts | 189° |
| 2026-04-27 13:59 | 13.10310 | -61.17336 | 26027 ft | 271 kts | 189° |
| 2026-04-27 13:59 | 13.08452 | -61.17656 | 26027 ft | 270 kts | 189° |
| 2026-04-27 13:59 | 13.06597 | -61.17975 | 26028 ft | 270 kts | 189° |
| 2026-04-27 13:59 | 13.04742 | -61.18294 | 26030 ft | 270 kts | 189° |
| 2026-04-27 14:00 | 13.02890 | -61.18613 | 26033 ft | 270 kts | 189° |
| 2026-04-27 14:00 | 13.01038 | -61.18932 | 26035 ft | 270 kts | 189° |
| 2026-04-27 14:00 | 12.99184 | -61.19250 | 26037 ft | 270 kts | 189° |
| 2026-04-27 14:00 | 12.97335 | -61.19568 | 26039 ft | 270 kts | 189° |
| 2026-04-27 14:01 | 12.95482 | -61.19887 | 26042 ft | 270 kts | 189° |
| 2026-04-27 14:01 | 12.93630 | -61.20205 | 26044 ft | 270 kts | 189° |
| 2026-04-27 14:01 | 12.91779 | -61.20523 | 26047 ft | 270 kts | 189° |
| 2026-04-27 14:01 | 12.89928 | -61.20841 | 26045 ft | 270 kts | 189° |
| 2026-04-27 14:02 | 12.88076 | -61.21160 | 26047 ft | 270 kts | 189° |
| 2026-04-27 14:02 | 12.86224 | -61.21478 | 26051 ft | 270 kts | 189° |
| 2026-04-27 14:02 | 12.84373 | -61.21795 | 26054 ft | 270 kts | 189° |
| 2026-04-27 14:02 | 12.82521 | -61.22114 | 26056 ft | 270 kts | 189° |
| 2026-04-27 14:03 | 12.80671 | -61.22431 | 26058 ft | 270 kts | 189° |
| 2026-04-27 14:03 | 12.78818 | -61.22749 | 26058 ft | 270 kts | 189° |
| 2026-04-27 14:03 | 12.76964 | -61.23068 | 26049 ft | 270 kts | 189° |
| 2026-04-27 14:03 | 12.75114 | -61.23385 | 26050 ft | 270 kts | 189° |
| 2026-04-27 14:04 | 12.73260 | -61.23703 | 26049 ft | 270 kts | 189° |
| 2026-04-27 14:04 | 12.71434 | -61.24017 | 26051 ft | 270 kts | 189° |
| 2026-04-27 14:04 | 12.69581 | -61.24335 | 26050 ft | 270 kts | 189° |
| 2026-04-27 14:04 | 12.67728 | -61.24652 | 26051 ft | 270 kts | 189° |
| 2026-04-27 14:05 | 12.65876 | -61.24970 | 26052 ft | 270 kts | 189° |
| 2026-04-27 14:05 | 12.64024 | -61.25288 | 26049 ft | 270 kts | 189° |
| 2026-04-27 14:05 | 12.62171 | -61.25605 | 26048 ft | 270 kts | 189° |
| 2026-04-27 14:05 | 12.60320 | -61.25922 | 26049 ft | 270 kts | 189° |
| 2026-04-27 14:06 | 12.58467 | -61.26240 | 26048 ft | 270 kts | 189° |
| 2026-04-27 14:06 | 12.56615 | -61.26558 | 26049 ft | 270 kts | 189° |
| 2026-04-27 14:06 | 12.54761 | -61.26875 | 26049 ft | 270 kts | 189° |
| 2026-04-27 14:06 | 12.52909 | -61.27193 | 26050 ft | 270 kts | 189° |
| 2026-04-27 14:07 | 12.51059 | -61.27509 | 26047 ft | 270 kts | 189° |
| 2026-04-27 14:07 | 12.49208 | -61.27827 | 26048 ft | 270 kts | 189° |
| 2026-04-27 14:07 | 12.47355 | -61.28144 | 26046 ft | 270 kts | 189° |
| 2026-04-27 14:07 | 12.45503 | -61.28461 | 26047 ft | 270 kts | 189° |
| 2026-04-27 14:08 | 12.43653 | -61.28778 | 26049 ft | 269 kts | 189° |
| 2026-04-27 14:08 | 12.41805 | -61.29094 | 26049 ft | 269 kts | 188° |
| 2026-04-27 14:08 | 12.39958 | -61.29410 | 26049 ft | 269 kts | 189° |
| 2026-04-27 14:08 | 12.38109 | -61.29727 | 26047 ft | 269 kts | 189° |
| 2026-04-27 14:09 | 12.36263 | -61.30043 | 26048 ft | 269 kts | 189° |
| 2026-04-27 14:09 | 12.34412 | -61.30359 | 26048 ft | 269 kts | 189° |
| 2026-04-27 14:09 | 12.32566 | -61.30675 | 26049 ft | 269 kts | 189° |
| 2026-04-27 14:09 | 12.30717 | -61.30991 | 26046 ft | 269 kts | 189° |
| 2026-04-27 14:10 | 12.28869 | -61.31307 | 26046 ft | 269 kts | 189° |
| 2026-04-27 14:10 | 12.27021 | -61.31623 | 26046 ft | 269 kts | 189° |
| 2026-04-27 14:10 | 12.25172 | -61.31939 | 26046 ft | 269 kts | 189° |
| 2026-04-27 14:10 | 12.23322 | -61.32256 | 26048 ft | 269 kts | 189° |
| 2026-04-27 14:11 | 12.21479 | -61.32595 | 26047 ft | 268 kts | 193° |
| 2026-04-27 14:11 | 12.19668 | -61.33034 | 26045 ft | 268 kts | 191° |
| 2026-04-27 14:11 | 12.17841 | -61.33430 | 26044 ft | 268 kts | 191° |
| 2026-04-27 14:11 | 12.16014 | -61.33836 | 26038 ft | 269 kts | 191° |
| 2026-04-27 14:12 | 12.14187 | -61.34258 | 26039 ft | 269 kts | 192° |
| 2026-04-27 14:12 | 12.12351 | -61.34682 | 25899 ft | 275 kts | 191° |
| 2026-04-27 14:12 | 12.10447 | -61.35116 | 25548 ft | 285 kts | 191° |
| 2026-04-27 14:12 | 12.08485 | -61.35563 | 25226 ft | 292 kts | 191° |
| 2026-04-27 14:13 | 12.06488 | -61.36019 | 24898 ft | 296 kts | 191° |
| 2026-04-27 14:13 | 12.04475 | -61.36480 | 24572 ft | 297 kts | 191° |
| 2026-04-27 14:13 | 12.02455 | -61.36942 | 24248 ft | 298 kts | 191° |
| 2026-04-27 14:13 | 12.00423 | -61.37405 | 23923 ft | 299 kts | 191° |
| 2026-04-27 14:14 | 11.98390 | -61.37870 | 23597 ft | 300 kts | 192° |
| 2026-04-27 14:14 | 11.96350 | -61.38336 | 23214 ft | 301 kts | 191° |
| 2026-04-27 14:14 | 11.94311 | -61.38801 | 22832 ft | 300 kts | 192° |
| 2026-04-27 14:14 | 11.92276 | -61.39266 | 22451 ft | 299 kts | 191° |
| 2026-04-27 14:15 | 11.90247 | -61.39729 | 22077 ft | 299 kts | 191° |
| 2026-04-27 14:15 | 11.88216 | -61.40192 | 21708 ft | 299 kts | 191° |
| 2026-04-27 14:15 | 11.86184 | -61.40656 | 21345 ft | 299 kts | 191° |
| 2026-04-27 14:15 | 11.84182 | -61.41113 | 20989 ft | 298 kts | 191° |
| 2026-04-27 14:16 | 11.82163 | -61.41573 | 20632 ft | 297 kts | 191° |
| 2026-04-27 14:16 | 11.80119 | -61.42039 | 20274 ft | 297 kts | 191° |
| 2026-04-27 14:16 | 11.78131 | -61.42492 | 19929 ft | 297 kts | 191° |
| 2026-04-27 14:16 | 11.76120 | -61.42951 | 19574 ft | 296 kts | 191° |
| 2026-04-27 14:17 | 11.74113 | -61.43409 | 19241 ft | 295 kts | 191° |
| 2026-04-27 14:17 | 11.72116 | -61.43864 | 18902 ft | 294 kts | 192° |
| 2026-04-27 14:17 | 11.70120 | -61.44318 | 18569 ft | 294 kts | 191° |
| 2026-04-27 14:17 | 11.68119 | -61.44774 | 18229 ft | 295 kts | 190° |
| 2026-04-27 14:18 | 11.66119 | -61.45230 | 17846 ft | 294 kts | 190° |
| 2026-04-27 14:18 | 11.64126 | -61.45684 | 17466 ft | 293 kts | 190° |
| 2026-04-27 14:18 | 11.62143 | -61.46135 | 17089 ft | 292 kts | 191° |
| 2026-04-27 14:18 | 11.60167 | -61.46586 | 16718 ft | 292 kts | 191° |
| 2026-04-27 14:19 | 11.58181 | -61.47038 | 16353 ft | 292 kts | 189° |
| 2026-04-27 14:19 | 11.56203 | -61.47488 | 15992 ft | 291 kts | 189° |
| 2026-04-27 14:19 | 11.54224 | -61.47938 | 15636 ft | 291 kts | 189° |
| 2026-04-27 14:19 | 11.52250 | -61.48387 | 15276 ft | 291 kts | 188° |
| 2026-04-27 14:20 | 11.50275 | -61.48837 | 14938 ft | 291 kts | 190° |
| 2026-04-27 14:20 | 11.48298 | -61.49287 | 14597 ft | 291 kts | 189° |
| 2026-04-27 14:20 | 11.46324 | -61.49736 | 14259 ft | 291 kts | 189° |
| 2026-04-27 14:20 | 11.44350 | -61.50185 | 13917 ft | 291 kts | 189° |
| 2026-04-27 14:21 | 11.42374 | -61.50634 | 13549 ft | 291 kts | 188° |
| 2026-04-27 14:21 | 11.40401 | -61.51083 | 13170 ft | 291 kts | 189° |
| 2026-04-27 14:21 | 11.38424 | -61.51532 | 12797 ft | 292 kts | 188° |
| 2026-04-27 14:21 | 11.36435 | -61.51984 | 12433 ft | 294 kts | 189° |
| 2026-04-27 14:22 | 11.34433 | -61.52439 | 12072 ft | 296 kts | 189° |
| 2026-04-27 14:22 | 11.32425 | -61.52896 | 11714 ft | 295 kts | 188° |
| 2026-04-27 14:22 | 11.30419 | -61.53351 | 11354 ft | 295 kts | 189° |
| 2026-04-27 14:22 | 11.28416 | -61.53807 | 11002 ft | 295 kts | 189° |
| 2026-04-27 14:23 | 11.26420 | -61.54260 | 10664 ft | 294 kts | 189° |
| 2026-04-27 14:23 | 11.24429 | -61.54712 | 10315 ft | 293 kts | 189° |
| 2026-04-27 14:23 | 11.22440 | -61.55164 | 9974 ft | 292 kts | 189° |
| 2026-04-27 14:23 | 11.20457 | -61.55614 | 9599 ft | 292 kts | 189° |
| 2026-04-27 14:24 | 11.18485 | -61.56062 | 9227 ft | 290 kts | 189° |
| 2026-04-27 14:24 | 11.16515 | -61.56509 | 8854 ft | 289 kts | 188° |
| 2026-04-27 14:24 | 11.14557 | -61.56954 | 8486 ft | 287 kts | 189° |
| 2026-04-27 14:24 | 11.12613 | -61.57395 | 8126 ft | 285 kts | 189° |
| 2026-04-27 14:25 | 11.10678 | -61.57834 | 7761 ft | 284 kts | 189° |
| 2026-04-27 14:25 | 11.08754 | -61.58270 | 7408 ft | 283 kts | 189° |
| 2026-04-27 14:25 | 11.06863 | -61.58699 | 7061 ft | 281 kts | 188° |
| 2026-04-27 14:25 | 11.04931 | -61.59137 | 6710 ft | 280 kts | 188° |
| 2026-04-27 14:26 | 11.03038 | -61.59567 | 6359 ft | 277 kts | 188° |
| 2026-04-27 14:26 | 11.01221 | -61.59981 | 5986 ft | 266 kts | 188° |
| 2026-04-27 14:26 | 10.99441 | -61.60385 | 5615 ft | 259 kts | 188° |
| 2026-04-27 14:26 | 10.97700 | -61.60778 | 5240 ft | 254 kts | 188° |
| 2026-04-27 14:27 | 10.95966 | -61.61171 | 4880 ft | 251 kts | 188° |
| 2026-04-27 14:27 | 10.94272 | -61.61554 | 4512 ft | 248 kts | 188° |
| 2026-04-27 14:27 | 10.92615 | -61.61929 | 4146 ft | 246 kts | 188° |
| 2026-04-27 14:27 | 10.90942 | -61.62310 | 4011 ft | 238 kts | 188° |
| 2026-04-27 14:28 | 10.89383 | -61.62665 | 4002 ft | 228 kts | 188° |
| 2026-04-27 14:28 | 10.87853 | -61.63010 | 3979 ft | 223 kts | 188° |
| 2026-04-27 14:28 | 10.86357 | -61.63348 | 3981 ft | 219 kts | 188° |
| 2026-04-27 14:28 | 10.84875 | -61.63683 | 3983 ft | 218 kts | 188° |
| 2026-04-27 14:29 | 10.83400 | -61.64017 | 3982 ft | 216 kts | 188° |
| 2026-04-27 14:29 | 10.81938 | -61.64348 | 3985 ft | 215 kts | 187° |
| 2026-04-27 14:29 | 10.80482 | -61.64678 | 3981 ft | 214 kts | 187° |
| 2026-04-27 14:29 | 10.79027 | -61.65007 | 3985 ft | 214 kts | 188° |
| 2026-04-27 14:30 | 10.77579 | -61.65335 | 3984 ft | 212 kts | 188° |
| 2026-04-27 14:30 | 10.76137 | -61.65661 | 3975 ft | 212 kts | 187° |
| 2026-04-27 14:30 | 10.74694 | -61.65987 | 3976 ft | 212 kts | 187° |
| 2026-04-27 14:30 | 10.73254 | -61.66314 | 3972 ft | 212 kts | 187° |
| 2026-04-27 14:31 | 10.71812 | -61.66640 | 3979 ft | 212 kts | 187° |
| 2026-04-27 14:31 | 10.70396 | -61.66966 | 3979 ft | 201 kts | 188° |
| 2026-04-27 14:31 | 10.69014 | -61.67275 | 3988 ft | 206 kts | 187° |
| 2026-04-27 14:31 | 10.67624 | -61.67586 | 3987 ft | 202 kts | 187° |
| 2026-04-27 14:32 | 10.66262 | -61.67895 | 3981 ft | 199 kts | 187° |
| 2026-04-27 14:32 | 10.64921 | -61.68194 | 3976 ft | 195 kts | 185° |
| 2026-04-27 14:32 | 10.63631 | -61.68089 | 3985 ft | 183 kts | 155° |
| 2026-04-27 14:32 | 10.62592 | -61.67400 | 3990 ft | 178 kts | 129° |
| 2026-04-27 14:33 | 10.61921 | -61.66364 | 3993 ft | 176 kts | 119° |
| 2026-04-27 14:33 | 10.61299 | -61.65293 | 3995 ft | 176 kts | 119° |
| 2026-04-27 14:33 | 10.60674 | -61.64219 | 3993 ft | 176 kts | 119° |
| 2026-04-27 14:33 | 10.60051 | -61.63145 | 3994 ft | 176 kts | 120° |
| 2026-04-27 14:34 | 10.59428 | -61.62073 | 3994 ft | 176 kts | 120° |
| 2026-04-27 14:34 | 10.59052 | -61.60919 | 3993 ft | 174 kts | 91° |
| 2026-04-27 14:34 | 10.59153 | -61.59694 | 3996 ft | 173 kts | 87° |
| 2026-04-27 14:34 | 10.59273 | -61.58500 | 3996 ft | 167 kts | 86° |
| 2026-04-27 14:35 | 10.59389 | -61.57316 | 3831 ft | 172 kts | 87° |
| 2026-04-27 14:35 | 10.59455 | -61.56097 | 3586 ft | 171 kts | 97° |
| 2026-04-27 14:35 | 10.59179 | -61.54952 | 3358 ft | 163 kts | 104° |
| 2026-04-27 14:35 | 10.59096 | -61.53838 | 3215 ft | 153 kts | 90° |
| 2026-04-27 14:36 | 10.59171 | -61.52791 | 3059 ft | 144 kts | 86° |
| 2026-04-27 14:36 | 10.59286 | -61.51809 | 2878 ft | 137 kts | 84° |
| 2026-04-27 14:36 | 10.59413 | -61.50885 | 2738 ft | 129 kts | 86° |
| 2026-04-27 14:36 | 10.59470 | -61.49977 | 2556 ft | 129 kts | 90° |
| 2026-04-27 14:37 | 10.59497 | -61.49092 | 2539 ft | 117 kts | 91° |
| 2026-04-27 14:37 | 10.59536 | -61.48309 | 2506 ft | 107 kts | 90° |
| 2026-04-27 14:37 | 10.59569 | -61.47554 | 2515 ft | 113 kts | 91° |
| 2026-04-27 14:37 | 10.59573 | -61.46726 | 2407 ft | 116 kts | 92° |
| 2026-04-27 14:38 | 10.59559 | -61.45916 | 2214 ft | 113 kts | 91° |
| 2026-04-27 14:38 | 10.59568 | -61.45101 | 1987 ft | 117 kts | 96° |
| 2026-04-27 14:38 | 10.59556 | -61.44294 | 1806 ft | 110 kts | 92° |
| 2026-04-27 14:38 | 10.59541 | -61.43536 | 1602 ft | 104 kts | 92° |
| 2026-04-27 14:39 | 10.59559 | -61.42830 | 1469 ft | 97 kts | 90° |
| 2026-04-27 14:39 | 10.59534 | -61.42144 | 1301 ft | 100 kts | 94° |
| 2026-04-27 14:39 | 10.59508 | -61.41429 | 1296 ft | 101 kts | 90° |
| 2026-04-27 14:39 | 10.59552 | -61.40745 | 1198 ft | 93 kts | 87° |
| 2026-04-27 14:40 | 10.59545 | -61.40070 | 1104 ft | 97 kts | 92° |
| 2026-04-27 14:40 | 10.59536 | -61.39378 | 943 ft | 98 kts | 89° |
| 2026-04-27 14:40 | 10.59520 | -61.38921 | 836 ft | 98 kts | 94° |
| 2026-04-27 14:40 | 10.59528 | -61.38240 | 646 ft | 94 kts | 92° |
| 2026-04-27 14:41 | 10.59513 | -61.37621 | 509 ft | 84 kts | 92° |
| 2026-04-27 14:41 | 10.59520 | -61.36976 | 442 ft | 96 kts | 90° |
| 2026-04-27 14:41 | 10.59532 | -61.36290 | 336 ft | 98 kts | 91° |
| 2026-04-27 14:41 | 10.59531 | -61.35626 | 144 ft | 89 kts | 91° |
| 2026-04-27 14:42 | 10.59531 | -61.35047 | 35 ft | 73 kts | 91° |
| 2026-04-27 14:42 | 10.59532 | -61.34660 | 34 ft | 20 kts | 90° |
| 2026-04-27 14:42 | 10.59544 | -61.34543 | 34 ft | 14 kts | 48° |
| 2026-04-27 14:42 | 10.59616 | -61.34526 | 34 ft | 10 kts | 359° |
| 2026-04-27 14:43 | 10.59645 | -61.34527 | 34 ft | 2 kts | 359° |
| 2026-04-27 14:43 | 10.59695 | -61.34510 | 34 ft | 13 kts | 47° |
| 2026-04-27 14:43 | 10.59707 | -61.34407 | 35 ft | 19 kts | 90° |
| 2026-04-27 14:43 | 10.59707 | -61.34271 | 37 ft | 20 kts | 90° |
| 2026-04-27 14:44 | 10.59735 | -61.34176 | 38 ft | 13 kts | 21° |
| 2026-04-27 14:44 | 10.59814 | -61.34175 | 38 ft | 12 kts | 0° |
| 2026-04-27 14:44 | 10.59888 | -61.34175 | 38 ft | 6 kts | 358° |
| 2026-04-27 14:44 | 10.59927 | -61.34233 | 37 ft | 13 kts | 281° |
| 2026-04-27 14:45 | 10.59928 | -61.34252 | 37 ft | 0 kts | 271° |